sensor_id;sensor_type;location;lat;lon;timestamp;P1;durP1;ratioP1;P2;durP2;ratioP2
828;SDS011;396;52.558;13.188;2023-03-18T00:01:12;17.97;;;4.40;;
828;SDS011;396;52.558;13.188;2023-03-18T00:03:39;14.33;;;4.53;;
828;SDS011;396;52.558;13.188;2023-03-18T00:06:06;8.67;;;3.23;;
828;SDS011;396;52.558;13.188;2023-03-18T00:08:37;10.60;;;4.27;;
828;SDS011;396;52.558;13.188;2023-03-18T00:11:05;9.93;;;3.97;;
828;SDS011;396;52.558;13.188;2023-03-18T00:13:32;8.27;;;3.50;;
828;SDS011;396;52.558;13.188;2023-03-18T00:15:59;18.03;;;4.33;;
828;SDS011;396;52.558;13.188;2023-03-18T00:18:26;8.70;;;4.13;;
828;SDS011;396;52.558;13.188;2023-03-18T00:20:53;9.93;;;4.10;;
828;SDS011;396;52.558;13.188;2023-03-18T00:23:19;11.70;;;4.10;;
828;SDS011;396;52.558;13.188;2023-03-18T00:25:50;9.43;;;4.33;;
828;SDS011;396;52.558;13.188;2023-03-18T00:28:17;12.67;;;4.20;;
828;SDS011;396;52.558;13.188;2023-03-18T00:30:44;12.30;;;4.57;;
828;SDS011;396;52.558;13.188;2023-03-18T00:33:11;9.87;;;3.90;;
828;SDS011;396;52.558;13.188;2023-03-18T00:35:38;12.00;;;4.00;;
828;SDS011;396;52.558;13.188;2023-03-18T00:38:05;13.77;;;4.57;;
828;SDS011;396;52.558;13.188;2023-03-18T00:40:34;8.97;;;3.63;;
828;SDS011;396;52.558;13.188;2023-03-18T00:43:19;12.03;;;4.47;;
828;SDS011;396;52.558;13.188;2023-03-18T00:45:47;11.93;;;4.10;;
828;SDS011;396;52.558;13.188;2023-03-18T00:48:15;11.80;;;3.53;;
828;SDS011;396;52.558;13.188;2023-03-18T00:50:43;9.87;;;3.73;;
828;SDS011;396;52.558;13.188;2023-03-18T00:53:10;10.23;;;3.63;;
828;SDS011;396;52.558;13.188;2023-03-18T00:55:38;9.97;;;3.30;;
828;SDS011;396;52.558;13.188;2023-03-18T00:58:05;10.53;;;4.03;;
828;SDS011;396;52.558;13.188;2023-03-18T01:00:34;9.70;;;3.93;;
828;SDS011;396;52.558;13.188;2023-03-18T01:03:01;7.67;;;2.63;;
828;SDS011;396;52.558;13.188;2023-03-18T01:05:28;9.43;;;3.37;;
828;SDS011;396;52.558;13.188;2023-03-18T01:07:55;12.63;;;4.60;;
828;SDS011;396;52.558;13.188;2023-03-18T01:10:22;14.37;;;4.53;;
828;SDS011;396;52.558;13.188;2023-03-18T01:12:49;16.10;;;4.43;;
828;SDS011;396;52.558;13.188;2023-03-18T01:15:16;11.43;;;3.70;;
828;SDS011;396;52.558;13.188;2023-03-18T01:17:45;10.73;;;4.70;;
828;SDS011;396;52.558;13.188;2023-03-18T01:20:14;13.80;;;4.33;;
828;SDS011;396;52.558;13.188;2023-03-18T01:22:42;10.50;;;4.20;;
828;SDS011;396;52.558;13.188;2023-03-18T01:25:09;9.17;;;3.20;;
828;SDS011;396;52.558;13.188;2023-03-18T01:27:37;15.23;;;3.90;;
828;SDS011;396;52.558;13.188;2023-03-18T01:30:05;11.37;;;3.77;;
828;SDS011;396;52.558;13.188;2023-03-18T01:32:33;9.20;;;3.50;;
828;SDS011;396;52.558;13.188;2023-03-18T01:35:03;11.93;;;4.10;;
828;SDS011;396;52.558;13.188;2023-03-18T01:37:31;11.00;;;3.80;;
828;SDS011;396;52.558;13.188;2023-03-18T01:39:57;8.97;;;3.63;;
828;SDS011;396;52.558;13.188;2023-03-18T01:42:24;9.20;;;3.70;;
828;SDS011;396;52.558;13.188;2023-03-18T01:47:36;9.37;;;3.97;;
828;SDS011;396;52.558;13.188;2023-03-18T01:50:05;12.80;;;4.70;;
828;SDS011;396;52.558;13.188;2023-03-18T01:52:32;7.97;;;3.40;;
828;SDS011;396;52.558;13.188;2023-03-18T01:55:01;9.20;;;3.80;;
828;SDS011;396;52.558;13.188;2023-03-18T01:57:30;9.20;;;3.40;;
828;SDS011;396;52.558;13.188;2023-03-18T01:59:58;11.07;;;4.00;;
828;SDS011;396;52.558;13.188;2023-03-18T02:02:26;8.80;;;3.43;;
828;SDS011;396;52.558;13.188;2023-03-18T02:04:54;12.37;;;4.27;;
828;SDS011;396;52.558;13.188;2023-03-18T02:07:26;8.97;;;3.27;;
828;SDS011;396;52.558;13.188;2023-03-18T02:09:55;9.40;;;3.50;;
828;SDS011;396;52.558;13.188;2023-03-18T02:12:24;11.37;;;3.97;;
828;SDS011;396;52.558;13.188;2023-03-18T02:14:53;11.50;;;3.77;;
828;SDS011;396;52.558;13.188;2023-03-18T02:17:22;17.63;;;3.70;;
828;SDS011;396;52.558;13.188;2023-03-18T02:19:53;9.30;;;3.33;;
828;SDS011;396;52.558;13.188;2023-03-18T02:22:30;14.33;;;3.23;;
828;SDS011;396;52.558;13.188;2023-03-18T02:25:02;13.00;;;4.00;;
828;SDS011;396;52.558;13.188;2023-03-18T02:27:36;10.10;;;3.00;;
828;SDS011;396;52.558;13.188;2023-03-18T02:30:08;8.50;;;3.10;;
828;SDS011;396;52.558;13.188;2023-03-18T02:32:38;14.90;;;3.90;;
828;SDS011;396;52.558;13.188;2023-03-18T02:35:06;8.70;;;3.43;;
828;SDS011;396;52.558;13.188;2023-03-18T02:37:36;12.40;;;3.40;;
828;SDS011;396;52.558;13.188;2023-03-18T02:40:13;11.40;;;3.30;;
828;SDS011;396;52.558;13.188;2023-03-18T02:42:45;8.10;;;2.93;;
828;SDS011;396;52.558;13.188;2023-03-18T02:45:13;8.67;;;3.43;;
828;SDS011;396;52.558;13.188;2023-03-18T02:47:49;9.33;;;3.40;;
828;SDS011;396;52.558;13.188;2023-03-18T02:50:17;10.50;;;3.60;;
828;SDS011;396;52.558;13.188;2023-03-18T02:52:45;9.47;;;3.67;;
828;SDS011;396;52.558;13.188;2023-03-18T02:55:12;10.57;;;2.90;;
828;SDS011;396;52.558;13.188;2023-03-18T02:57:39;11.87;;;3.90;;
828;SDS011;396;52.558;13.188;2023-03-18T03:00:09;12.50;;;4.03;;
828;SDS011;396;52.558;13.188;2023-03-18T03:02:37;8.33;;;3.03;;
828;SDS011;396;52.558;13.188;2023-03-18T03:05:04;10.03;;;4.00;;
828;SDS011;396;52.558;13.188;2023-03-18T03:07:33;10.00;;;3.77;;
828;SDS011;396;52.558;13.188;2023-03-18T03:09:59;12.83;;;4.00;;
828;SDS011;396;52.558;13.188;2023-03-18T03:12:27;10.83;;;3.70;;
828;SDS011;396;52.558;13.188;2023-03-18T03:14:53;7.80;;;2.80;;
828;SDS011;396;52.558;13.188;2023-03-18T03:17:22;11.00;;;3.40;;
828;SDS011;396;52.558;13.188;2023-03-18T03:19:48;11.27;;;3.77;;
828;SDS011;396;52.558;13.188;2023-03-18T03:22:16;8.00;;;3.00;;
828;SDS011;396;52.558;13.188;2023-03-18T03:24:42;11.07;;;4.27;;
828;SDS011;396;52.558;13.188;2023-03-18T03:27:09;11.77;;;3.47;;
828;SDS011;396;52.558;13.188;2023-03-18T03:29:36;7.63;;;2.73;;
828;SDS011;396;52.558;13.188;2023-03-18T03:32:03;8.00;;;2.90;;
828;SDS011;396;52.558;13.188;2023-03-18T03:34:32;11.47;;;3.63;;
828;SDS011;396;52.558;13.188;2023-03-18T03:36:59;12.20;;;3.40;;
828;SDS011;396;52.558;13.188;2023-03-18T03:39:25;8.70;;;3.20;;
828;SDS011;396;52.558;13.188;2023-03-18T03:41:52;17.67;;;3.17;;
828;SDS011;396;52.558;13.188;2023-03-18T03:44:19;9.13;;;3.07;;
828;SDS011;396;52.558;13.188;2023-03-18T03:46:45;9.23;;;3.07;;
828;SDS011;396;52.558;13.188;2023-03-18T03:49:12;10.43;;;3.03;;
828;SDS011;396;52.558;13.188;2023-03-18T03:51:40;8.53;;;3.20;;
828;SDS011;396;52.558;13.188;2023-03-18T03:54:07;11.20;;;3.10;;
828;SDS011;396;52.558;13.188;2023-03-18T03:56:33;8.20;;;2.93;;
828;SDS011;396;52.558;13.188;2023-03-18T03:59:00;8.90;;;2.77;;
828;SDS011;396;52.558;13.188;2023-03-18T04:01:28;15.30;;;2.80;;
828;SDS011;396;52.558;13.188;2023-03-18T04:03:55;8.03;;;3.10;;
828;SDS011;396;52.558;13.188;2023-03-18T04:06:22;9.07;;;3.13;;
828;SDS011;396;52.558;13.188;2023-03-18T04:08:50;9.53;;;2.60;;
828;SDS011;396;52.558;13.188;2023-03-18T04:11:16;11.50;;;3.60;;
828;SDS011;396;52.558;13.188;2023-03-18T04:13:43;9.27;;;3.03;;
828;SDS011;396;52.558;13.188;2023-03-18T04:16:09;7.90;;;2.57;;
828;SDS011;396;52.558;13.188;2023-03-18T04:18:36;9.53;;;3.37;;
828;SDS011;396;52.558;13.188;2023-03-18T04:21:03;9.93;;;2.70;;
828;SDS011;396;52.558;13.188;2023-03-18T04:23:30;14.70;;;3.80;;
828;SDS011;396;52.558;13.188;2023-03-18T04:25:58;10.00;;;2.80;;
828;SDS011;396;52.558;13.188;2023-03-18T04:28:25;27.73;;;4.00;;
828;SDS011;396;52.558;13.188;2023-03-18T04:30:52;9.87;;;3.17;;
828;SDS011;396;52.558;13.188;2023-03-18T04:33:18;10.33;;;3.40;;
828;SDS011;396;52.558;13.188;2023-03-18T04:35:46;11.57;;;3.40;;
828;SDS011;396;52.558;13.188;2023-03-18T04:38:13;10.80;;;2.47;;
828;SDS011;396;52.558;13.188;2023-03-18T04:40:39;7.10;;;2.90;;
828;SDS011;396;52.558;13.188;2023-03-18T04:43:08;9.33;;;3.40;;
828;SDS011;396;52.558;13.188;2023-03-18T04:45:35;8.70;;;3.60;;
828;SDS011;396;52.558;13.188;2023-03-18T04:48:02;10.77;;;2.60;;
828;SDS011;396;52.558;13.188;2023-03-18T04:50:29;16.70;;;4.90;;
828;SDS011;396;52.558;13.188;2023-03-18T04:52:56;11.00;;;3.47;;
828;SDS011;396;52.558;13.188;2023-03-18T04:55:24;11.90;;;3.47;;
828;SDS011;396;52.558;13.188;2023-03-18T04:57:50;7.50;;;2.53;;
828;SDS011;396;52.558;13.188;2023-03-18T05:00:19;11.67;;;3.57;;
828;SDS011;396;52.558;13.188;2023-03-18T05:02:46;8.20;;;3.10;;
828;SDS011;396;52.558;13.188;2023-03-18T05:05:13;11.23;;;3.83;;
828;SDS011;396;52.558;13.188;2023-03-18T05:07:40;7.10;;;2.47;;
828;SDS011;396;52.558;13.188;2023-03-18T05:10:07;9.50;;;2.77;;
828;SDS011;396;52.558;13.188;2023-03-18T05:12:35;9.20;;;3.57;;
828;SDS011;396;52.558;13.188;2023-03-18T05:15:02;7.27;;;2.57;;
828;SDS011;396;52.558;13.188;2023-03-18T05:17:30;10.73;;;2.90;;
828;SDS011;396;52.558;13.188;2023-03-18T05:19:57;9.97;;;3.30;;
828;SDS011;396;52.558;13.188;2023-03-18T05:22:23;7.63;;;3.03;;
828;SDS011;396;52.558;13.188;2023-03-18T05:24:50;7.70;;;3.43;;
828;SDS011;396;52.558;13.188;2023-03-18T05:27:17;10.20;;;3.40;;
828;SDS011;396;52.558;13.188;2023-03-18T05:29:44;9.33;;;3.27;;
828;SDS011;396;52.558;13.188;2023-03-18T05:32:11;8.80;;;3.10;;
828;SDS011;396;52.558;13.188;2023-03-18T05:34:40;8.57;;;2.83;;
828;SDS011;396;52.558;13.188;2023-03-18T05:37:08;9.53;;;3.53;;
828;SDS011;396;52.558;13.188;2023-03-18T05:39:36;8.10;;;3.57;;
828;SDS011;396;52.558;13.188;2023-03-18T05:42:04;7.27;;;2.80;;
828;SDS011;396;52.558;13.188;2023-03-18T05:44:31;8.97;;;3.20;;
828;SDS011;396;52.558;13.188;2023-03-18T05:46:59;18.53;;;3.03;;
828;SDS011;396;52.558;13.188;2023-03-18T05:49:25;7.83;;;2.57;;
828;SDS011;396;52.558;13.188;2023-03-18T05:51:53;9.17;;;2.90;;
828;SDS011;396;52.558;13.188;2023-03-18T05:54:21;8.70;;;3.30;;
828;SDS011;396;52.558;13.188;2023-03-18T05:56:48;7.93;;;3.30;;
828;SDS011;396;52.558;13.188;2023-03-18T05:59:16;9.23;;;3.00;;
828;SDS011;396;52.558;13.188;2023-03-18T06:01:43;9.30;;;3.20;;
828;SDS011;396;52.558;13.188;2023-03-18T06:04:09;7.40;;;2.37;;
828;SDS011;396;52.558;13.188;2023-03-18T06:06:36;14.23;;;3.40;;
828;SDS011;396;52.558;13.188;2023-03-18T06:09:06;7.90;;;3.30;;
828;SDS011;396;52.558;13.188;2023-03-18T06:11:33;8.40;;;3.80;;
828;SDS011;396;52.558;13.188;2023-03-18T06:14:01;10.20;;;2.80;;
828;SDS011;396;52.558;13.188;2023-03-18T06:16:28;9.77;;;3.37;;
828;SDS011;396;52.558;13.188;2023-03-18T06:18:55;7.80;;;3.20;;
828;SDS011;396;52.558;13.188;2023-03-18T06:21:23;8.43;;;3.10;;
828;SDS011;396;52.558;13.188;2023-03-18T06:23:49;9.07;;;3.03;;
828;SDS011;396;52.558;13.188;2023-03-18T06:26:18;8.60;;;2.90;;
828;SDS011;396;52.558;13.188;2023-03-18T06:28:45;8.30;;;3.03;;
828;SDS011;396;52.558;13.188;2023-03-18T06:31:11;9.53;;;3.40;;
828;SDS011;396;52.558;13.188;2023-03-18T06:33:38;7.87;;;3.10;;
828;SDS011;396;52.558;13.188;2023-03-18T06:36:05;7.97;;;2.90;;
828;SDS011;396;52.558;13.188;2023-03-18T06:38:33;8.33;;;3.00;;
828;SDS011;396;52.558;13.188;2023-03-18T06:40:59;16.53;;;4.10;;
828;SDS011;396;52.558;13.188;2023-03-18T06:43:27;10.40;;;2.97;;
828;SDS011;396;52.558;13.188;2023-03-18T06:45:55;7.03;;;2.70;;
828;SDS011;396;52.558;13.188;2023-03-18T06:48:23;9.10;;;3.70;;
828;SDS011;396;52.558;13.188;2023-03-18T06:50:50;9.67;;;3.30;;
828;SDS011;396;52.558;13.188;2023-03-18T06:53:16;7.90;;;3.13;;
828;SDS011;396;52.558;13.188;2023-03-18T06:55:43;10.07;;;3.50;;
828;SDS011;396;52.558;13.188;2023-03-18T06:58:10;7.17;;;2.53;;
828;SDS011;396;52.558;13.188;2023-03-18T07:00:38;9.03;;;3.03;;
828;SDS011;396;52.558;13.188;2023-03-18T07:03:05;12.10;;;4.20;;
828;SDS011;396;52.558;13.188;2023-03-18T07:05:32;12.43;;;3.43;;
828;SDS011;396;52.558;13.188;2023-03-18T07:07:59;8.50;;;2.70;;
828;SDS011;396;52.558;13.188;2023-03-18T07:10:27;12.63;;;3.40;;
828;SDS011;396;52.558;13.188;2023-03-18T07:12:56;9.07;;;3.40;;
828;SDS011;396;52.558;13.188;2023-03-18T07:15:23;14.17;;;3.90;;
828;SDS011;396;52.558;13.188;2023-03-18T07:17:52;10.43;;;3.70;;
828;SDS011;396;52.558;13.188;2023-03-18T07:20:19;7.43;;;3.20;;
828;SDS011;396;52.558;13.188;2023-03-18T07:22:48;10.87;;;3.10;;
828;SDS011;396;52.558;13.188;2023-03-18T07:25:15;11.37;;;3.87;;
828;SDS011;396;52.558;13.188;2023-03-18T07:27:42;9.67;;;2.77;;
828;SDS011;396;52.558;13.188;2023-03-18T07:30:10;11.23;;;3.20;;
828;SDS011;396;52.558;13.188;2023-03-18T07:32:37;9.57;;;3.20;;
828;SDS011;396;52.558;13.188;2023-03-18T07:35:06;6.83;;;2.20;;
828;SDS011;396;52.558;13.188;2023-03-18T07:37:34;11.30;;;3.23;;
828;SDS011;396;52.558;13.188;2023-03-18T07:40:01;9.63;;;3.50;;
828;SDS011;396;52.558;13.188;2023-03-18T07:42:28;9.93;;;4.07;;
828;SDS011;396;52.558;13.188;2023-03-18T07:44:54;10.60;;;3.40;;
828;SDS011;396;52.558;13.188;2023-03-18T07:47:22;9.23;;;3.13;;
828;SDS011;396;52.558;13.188;2023-03-18T07:49:49;10.30;;;3.83;;
828;SDS011;396;52.558;13.188;2023-03-18T07:52:17;11.10;;;4.30;;
828;SDS011;396;52.558;13.188;2023-03-18T07:54:43;8.30;;;2.87;;
828;SDS011;396;52.558;13.188;2023-03-18T07:57:10;10.10;;;3.90;;
828;SDS011;396;52.558;13.188;2023-03-18T07:59:37;13.30;;;3.20;;
828;SDS011;396;52.558;13.188;2023-03-18T08:02:03;9.80;;;4.13;;
828;SDS011;396;52.558;13.188;2023-03-18T08:04:32;7.67;;;2.80;;
828;SDS011;396;52.558;13.188;2023-03-18T08:06:59;10.33;;;3.70;;
828;SDS011;396;52.558;13.188;2023-03-18T08:09:28;7.90;;;3.07;;
828;SDS011;396;52.558;13.188;2023-03-18T08:11:55;8.00;;;3.33;;
828;SDS011;396;52.558;13.188;2023-03-18T08:14:21;7.00;;;2.97;;
828;SDS011;396;52.558;13.188;2023-03-18T08:16:48;10.43;;;3.00;;
828;SDS011;396;52.558;13.188;2023-03-18T08:19:15;8.00;;;2.80;;
828;SDS011;396;52.558;13.188;2023-03-18T08:21:41;8.10;;;3.20;;
828;SDS011;396;52.558;13.188;2023-03-18T08:24:08;8.00;;;3.70;;
828;SDS011;396;52.558;13.188;2023-03-18T08:26:36;9.67;;;3.00;;
828;SDS011;396;52.558;13.188;2023-03-18T08:29:02;8.73;;;3.30;;
828;SDS011;396;52.558;13.188;2023-03-18T08:31:29;8.10;;;3.57;;
828;SDS011;396;52.558;13.188;2023-03-18T08:33:56;9.13;;;3.63;;
828;SDS011;396;52.558;13.188;2023-03-18T08:36:24;9.17;;;3.20;;
828;SDS011;396;52.558;13.188;2023-03-18T08:38:52;14.97;;;2.90;;
828;SDS011;396;52.558;13.188;2023-03-18T08:41:19;10.10;;;3.30;;
828;SDS011;396;52.558;13.188;2023-03-18T08:43:47;8.43;;;3.13;;
828;SDS011;396;52.558;13.188;2023-03-18T08:46:16;12.07;;;2.97;;
828;SDS011;396;52.558;13.188;2023-03-18T08:48:43;9.90;;;3.20;;
828;SDS011;396;52.558;13.188;2023-03-18T08:51:09;8.30;;;3.17;;
828;SDS011;396;52.558;13.188;2023-03-18T08:53:36;8.70;;;3.50;;
828;SDS011;396;52.558;13.188;2023-03-18T08:56:03;9.33;;;2.93;;
828;SDS011;396;52.558;13.188;2023-03-18T08:58:32;8.30;;;3.27;;
828;SDS011;396;52.558;13.188;2023-03-18T09:01:00;7.30;;;3.07;;
828;SDS011;396;52.558;13.188;2023-03-18T09:03:29;8.13;;;2.40;;
828;SDS011;396;52.558;13.188;2023-03-18T09:05:55;8.30;;;3.10;;
828;SDS011;396;52.558;13.188;2023-03-18T09:08:22;9.27;;;3.00;;
828;SDS011;396;52.558;13.188;2023-03-18T09:10:50;7.17;;;2.40;;
828;SDS011;396;52.558;13.188;2023-03-18T09:13:17;7.50;;;2.20;;
828;SDS011;396;52.558;13.188;2023-03-18T09:15:44;11.10;;;2.40;;
828;SDS011;396;52.558;13.188;2023-03-18T09:18:12;8.83;;;3.27;;
828;SDS011;396;52.558;13.188;2023-03-18T09:20:39;8.50;;;2.83;;
828;SDS011;396;52.558;13.188;2023-03-18T09:23:06;6.33;;;2.43;;
828;SDS011;396;52.558;13.188;2023-03-18T09:25:33;11.37;;;3.00;;
828;SDS011;396;52.558;13.188;2023-03-18T09:27:59;6.53;;;2.70;;
828;SDS011;396;52.558;13.188;2023-03-18T09:30:26;8.20;;;2.60;;
828;SDS011;396;52.558;13.188;2023-03-18T09:32:54;9.33;;;3.30;;
828;SDS011;396;52.558;13.188;2023-03-18T09:35:22;8.60;;;2.87;;
828;SDS011;396;52.558;13.188;2023-03-18T09:37:49;7.37;;;2.50;;
828;SDS011;396;52.558;13.188;2023-03-18T09:40:17;8.03;;;3.07;;
828;SDS011;396;52.558;13.188;2023-03-18T09:42:52;11.30;;;2.90;;
828;SDS011;396;52.558;13.188;2023-03-18T09:45:28;8.80;;;3.03;;
828;SDS011;396;52.558;13.188;2023-03-18T09:51:01;7.90;;;2.83;;
828;SDS011;396;52.558;13.188;2023-03-18T09:53:38;8.10;;;2.60;;
828;SDS011;396;52.558;13.188;2023-03-18T09:56:11;8.90;;;3.30;;
828;SDS011;396;52.558;13.188;2023-03-18T09:58:44;9.33;;;2.87;;
828;SDS011;396;52.558;13.188;2023-03-18T10:01:14;8.13;;;2.63;;
828;SDS011;396;52.558;13.188;2023-03-18T10:03:44;5.90;;;1.70;;
828;SDS011;396;52.558;13.188;2023-03-18T10:06:18;7.10;;;2.10;;
828;SDS011;396;52.558;13.188;2023-03-18T10:08:49;8.17;;;2.87;;
828;SDS011;396;52.558;13.188;2023-03-18T10:11:23;9.23;;;2.80;;
828;SDS011;396;52.558;13.188;2023-03-18T10:13:59;7.07;;;2.10;;
828;SDS011;396;52.558;13.188;2023-03-18T10:16:46;15.43;;;3.00;;
828;SDS011;396;52.558;13.188;2023-03-18T10:19:20;6.63;;;2.30;;
828;SDS011;396;52.558;13.188;2023-03-18T10:21:51;6.47;;;2.43;;
828;SDS011;396;52.558;13.188;2023-03-18T10:24:29;7.37;;;2.17;;
828;SDS011;396;52.558;13.188;2023-03-18T10:27:06;7.50;;;2.70;;
828;SDS011;396;52.558;13.188;2023-03-18T10:29:40;10.70;;;2.60;;
828;SDS011;396;52.558;13.188;2023-03-18T10:32:17;7.60;;;2.40;;
828;SDS011;396;52.558;13.188;2023-03-18T10:34:56;7.27;;;2.50;;
828;SDS011;396;52.558;13.188;2023-03-18T10:37:33;7.83;;;2.30;;
828;SDS011;396;52.558;13.188;2023-03-18T10:40:10;6.73;;;2.30;;
828;SDS011;396;52.558;13.188;2023-03-18T10:42:39;6.47;;;2.23;;
828;SDS011;396;52.558;13.188;2023-03-18T10:45:08;7.07;;;2.27;;
828;SDS011;396;52.558;13.188;2023-03-18T10:47:45;7.63;;;2.67;;
828;SDS011;396;52.558;13.188;2023-03-18T10:50:18;7.23;;;2.60;;
828;SDS011;396;52.558;13.188;2023-03-18T10:52:51;9.47;;;2.50;;
828;SDS011;396;52.558;13.188;2023-03-18T10:55:21;11.10;;;2.90;;
828;SDS011;396;52.558;13.188;2023-03-18T10:57:55;6.57;;;2.23;;
828;SDS011;396;52.558;13.188;2023-03-18T11:00:26;7.00;;;2.70;;
828;SDS011;396;52.558;13.188;2023-03-18T11:02:54;6.93;;;2.70;;
828;SDS011;396;52.558;13.188;2023-03-18T11:05:23;7.70;;;2.63;;
828;SDS011;396;52.558;13.188;2023-03-18T11:07:57;7.07;;;2.30;;
828;SDS011;396;52.558;13.188;2023-03-18T11:10:26;7.27;;;2.20;;
828;SDS011;396;52.558;13.188;2023-03-18T11:12:56;7.63;;;3.00;;
828;SDS011;396;52.558;13.188;2023-03-18T11:15:26;11.20;;;2.60;;
828;SDS011;396;52.558;13.188;2023-03-18T11:17:55;9.77;;;2.90;;
828;SDS011;396;52.558;13.188;2023-03-18T11:20:30;10.60;;;2.83;;
828;SDS011;396;52.558;13.188;2023-03-18T11:23:13;7.00;;;2.67;;
828;SDS011;396;52.558;13.188;2023-03-18T11:25:44;5.87;;;1.90;;
828;SDS011;396;52.558;13.188;2023-03-18T11:28:17;8.57;;;2.87;;
828;SDS011;396;52.558;13.188;2023-03-18T11:30:47;6.73;;;2.40;;
828;SDS011;396;52.558;13.188;2023-03-18T11:33:16;8.00;;;2.47;;
828;SDS011;396;52.558;13.188;2023-03-18T11:35:44;6.67;;;2.33;;
828;SDS011;396;52.558;13.188;2023-03-18T11:38:18;6.80;;;2.07;;
828;SDS011;396;52.558;13.188;2023-03-18T11:40:46;7.07;;;2.33;;
828;SDS011;396;52.558;13.188;2023-03-18T11:43:14;11.50;;;2.90;;
828;SDS011;396;52.558;13.188;2023-03-18T11:45:45;8.07;;;2.80;;
828;SDS011;396;52.558;13.188;2023-03-18T11:48:17;11.37;;;2.23;;
828;SDS011;396;52.558;13.188;2023-03-18T11:50:53;5.83;;;2.00;;
828;SDS011;396;52.558;13.188;2023-03-18T11:53:31;6.13;;;1.83;;
828;SDS011;396;52.558;13.188;2023-03-18T11:56:13;7.47;;;2.17;;
828;SDS011;396;52.558;13.188;2023-03-18T11:58:54;5.90;;;2.10;;
828;SDS011;396;52.558;13.188;2023-03-18T12:01:26;6.83;;;1.87;;
828;SDS011;396;52.558;13.188;2023-03-18T12:04:13;8.50;;;2.53;;
828;SDS011;396;52.558;13.188;2023-03-18T12:06:54;8.77;;;2.43;;
828;SDS011;396;52.558;13.188;2023-03-18T12:09:33;5.40;;;1.60;;
828;SDS011;396;52.558;13.188;2023-03-18T12:12:14;6.20;;;2.00;;
828;SDS011;396;52.558;13.188;2023-03-18T12:14:56;7.43;;;2.47;;
828;SDS011;396;52.558;13.188;2023-03-18T12:17:31;5.87;;;1.43;;
828;SDS011;396;52.558;13.188;2023-03-18T12:20:10;7.93;;;2.13;;
828;SDS011;396;52.558;13.188;2023-03-18T12:22:55;5.17;;;1.70;;
828;SDS011;396;52.558;13.188;2023-03-18T12:28:39;6.13;;;1.60;;
828;SDS011;396;52.558;13.188;2023-03-18T12:31:24;6.23;;;1.87;;
828;SDS011;396;52.558;13.188;2023-03-18T12:34:00;7.27;;;1.93;;
828;SDS011;396;52.558;13.188;2023-03-18T12:36:34;5.17;;;1.50;;
828;SDS011;396;52.558;13.188;2023-03-18T12:39:21;5.20;;;1.63;;
828;SDS011;396;52.558;13.188;2023-03-18T12:42:08;5.40;;;1.40;;
828;SDS011;396;52.558;13.188;2023-03-18T12:44:47;7.00;;;1.90;;
828;SDS011;396;52.558;13.188;2023-03-18T12:47:24;7.20;;;2.10;;
828;SDS011;396;52.558;13.188;2023-03-18T12:49:54;7.03;;;1.77;;
828;SDS011;396;52.558;13.188;2023-03-18T12:52:25;5.50;;;1.60;;
828;SDS011;396;52.558;13.188;2023-03-18T12:54:58;6.77;;;1.93;;
828;SDS011;396;52.558;13.188;2023-03-18T12:57:35;5.47;;;1.60;;
828;SDS011;396;52.558;13.188;2023-03-18T13:00:12;6.77;;;2.10;;
828;SDS011;396;52.558;13.188;2023-03-18T13:02:46;11.70;;;2.10;;
828;SDS011;396;52.558;13.188;2023-03-18T13:05:26;9.07;;;2.37;;
828;SDS011;396;52.558;13.188;2023-03-18T13:08:05;6.30;;;1.87;;
828;SDS011;396;52.558;13.188;2023-03-18T13:10:51;6.40;;;1.93;;
828;SDS011;396;52.558;13.188;2023-03-18T13:13:22;7.57;;;2.20;;
828;SDS011;396;52.558;13.188;2023-03-18T13:15:53;8.43;;;1.80;;
828;SDS011;396;52.558;13.188;2023-03-18T13:18:21;5.67;;;1.57;;
828;SDS011;396;52.558;13.188;2023-03-18T13:20:55;6.83;;;1.53;;
828;SDS011;396;52.558;13.188;2023-03-18T13:23:34;9.47;;;2.13;;
828;SDS011;396;52.558;13.188;2023-03-18T13:26:15;5.87;;;1.47;;
828;SDS011;396;52.558;13.188;2023-03-18T13:28:54;6.50;;;2.33;;
828;SDS011;396;52.558;13.188;2023-03-18T13:31:34;6.13;;;1.80;;
828;SDS011;396;52.558;13.188;2023-03-18T13:37:11;6.93;;;2.20;;
828;SDS011;396;52.558;13.188;2023-03-18T13:39:59;6.07;;;1.97;;
828;SDS011;396;52.558;13.188;2023-03-18T13:42:34;8.10;;;1.80;;
828;SDS011;396;52.558;13.188;2023-03-18T13:45:03;5.93;;;2.03;;
828;SDS011;396;52.558;13.188;2023-03-18T13:47:38;6.27;;;1.90;;
828;SDS011;396;52.558;13.188;2023-03-18T13:50:21;5.60;;;1.40;;
828;SDS011;396;52.558;13.188;2023-03-18T13:52:55;6.40;;;2.00;;
828;SDS011;396;52.558;13.188;2023-03-18T13:55:25;6.20;;;1.80;;
828;SDS011;396;52.558;13.188;2023-03-18T13:58:06;6.87;;;1.83;;
828;SDS011;396;52.558;13.188;2023-03-18T14:00:43;9.40;;;1.73;;
828;SDS011;396;52.558;13.188;2023-03-18T14:03:16;10.10;;;2.70;;
828;SDS011;396;52.558;13.188;2023-03-18T14:05:47;6.70;;;2.00;;
828;SDS011;396;52.558;13.188;2023-03-18T14:17:42;5.10;;;1.50;;
828;SDS011;396;52.558;13.188;2023-03-18T14:20:21;6.10;;;1.40;;
828;SDS011;396;52.558;13.188;2023-03-18T14:25:58;5.00;;;1.23;;
828;SDS011;396;52.558;13.188;2023-03-18T14:28:27;7.97;;;2.20;;
828;SDS011;396;52.558;13.188;2023-03-18T14:34:03;5.10;;;1.40;;
828;SDS011;396;52.558;13.188;2023-03-18T14:39:41;7.07;;;1.97;;
828;SDS011;396;52.558;13.188;2023-03-18T14:42:11;7.63;;;1.50;;
828;SDS011;396;52.558;13.188;2023-03-18T14:44:49;6.83;;;1.60;;
828;SDS011;396;52.558;13.188;2023-03-18T14:47:19;11.20;;;1.50;;
828;SDS011;396;52.558;13.188;2023-03-18T14:49:51;6.80;;;1.70;;
828;SDS011;396;52.558;13.188;2023-03-18T14:52:24;6.67;;;1.67;;
828;SDS011;396;52.558;13.188;2023-03-18T14:54:56;10.00;;;1.43;;
828;SDS011;396;52.558;13.188;2023-03-18T14:57:26;6.50;;;2.00;;
828;SDS011;396;52.558;13.188;2023-03-18T14:59:53;5.47;;;1.50;;
828;SDS011;396;52.558;13.188;2023-03-18T15:02:22;5.10;;;1.33;;
828;SDS011;396;52.558;13.188;2023-03-18T15:04:51;4.80;;;1.27;;
828;SDS011;396;52.558;13.188;2023-03-18T15:07:21;5.60;;;1.70;;
828;SDS011;396;52.558;13.188;2023-03-18T15:09:59;4.60;;;1.07;;
828;SDS011;396;52.558;13.188;2023-03-18T15:12:28;5.87;;;1.13;;
828;SDS011;396;52.558;13.188;2023-03-18T15:14:55;4.80;;;1.23;;
828;SDS011;396;52.558;13.188;2023-03-18T15:17:23;6.50;;;1.77;;
828;SDS011;396;52.558;13.188;2023-03-18T15:19:54;4.73;;;1.13;;
828;SDS011;396;52.558;13.188;2023-03-18T15:22:22;6.20;;;1.50;;
828;SDS011;396;52.558;13.188;2023-03-18T15:24:53;5.57;;;1.43;;
828;SDS011;396;52.558;13.188;2023-03-18T15:27:25;5.83;;;1.43;;
828;SDS011;396;52.558;13.188;2023-03-18T15:29:53;5.43;;;1.27;;
828;SDS011;396;52.558;13.188;2023-03-18T15:32:22;6.07;;;0.97;;
828;SDS011;396;52.558;13.188;2023-03-18T15:34:51;9.63;;;1.23;;
828;SDS011;396;52.558;13.188;2023-03-18T15:37:32;5.07;;;1.00;;
828;SDS011;396;52.558;13.188;2023-03-18T15:40:23;4.90;;;1.27;;
828;SDS011;396;52.558;13.188;2023-03-18T15:42:54;7.80;;;1.50;;
828;SDS011;396;52.558;13.188;2023-03-18T15:45:23;8.17;;;1.50;;
828;SDS011;396;52.558;13.188;2023-03-18T15:47:51;6.17;;;1.53;;
828;SDS011;396;52.558;13.188;2023-03-18T15:50:23;4.70;;;1.30;;
828;SDS011;396;52.558;13.188;2023-03-18T15:53:01;6.27;;;1.70;;
828;SDS011;396;52.558;13.188;2023-03-18T15:55:31;5.27;;;1.13;;
828;SDS011;396;52.558;13.188;2023-03-18T15:58:02;7.70;;;0.90;;
828;SDS011;396;52.558;13.188;2023-03-18T16:00:31;4.93;;;1.10;;
828;SDS011;396;52.558;13.188;2023-03-18T16:02:58;5.03;;;1.20;;
828;SDS011;396;52.558;13.188;2023-03-18T16:05:26;4.93;;;1.23;;
828;SDS011;396;52.558;13.188;2023-03-18T16:07:53;8.33;;;1.43;;
828;SDS011;396;52.558;13.188;2023-03-18T16:10:22;5.00;;;1.30;;
828;SDS011;396;52.558;13.188;2023-03-18T16:12:50;4.90;;;1.13;;